Scotts, Michigan
Current Conditions -  °F | °C
As of 3:53 AM on Friday 31 Oct 2014 (Local Time) from KAZO Reporting Station
Overcast Overcast  
Wind Chill: 42°   Ceiling: 4100
Heat Index: 45°   Visibility: 10mi
Dew Point: 38°   Wind: 6mph
Humidity: 76%   Direction: 220°SW
Pressure: 29.94"   Gusts: NA
Location:  42.2°N, 85.41°W
Report Text: KAZO 310753Z AUTO 22005KT 10SM FEW030 OVC041 07/03 A2994 RMK AO2 RAB25E43 SLP143 P0000 T00720033
Loading
Personal Weather Stations






























Interactive Weather Map
Tropical Storm Tracking
New forecast layout! Learn more

10-Day Weather Forecast

Advertisements
Track Severe Weather on mobile